createdAt,value
2019-05-29T00:00:33.988Z,0.00
2019-05-29T00:01:33.917Z,0.00
2019-05-29T00:02:33.876Z,0.00
2019-05-29T00:03:33.863Z,0.00
2019-05-29T00:04:33.787Z,0.00
2019-05-29T00:05:33.760Z,0.00
2019-05-29T00:06:33.754Z,0.00
2019-05-29T00:07:33.672Z,0.00
2019-05-29T00:08:33.622Z,0.00
2019-05-29T00:09:33.589Z,0.00
2019-05-29T00:10:33.544Z,0.00
2019-05-29T00:11:33.504Z,0.00
2019-05-29T00:12:33.500Z,0.00
2019-05-29T00:13:33.409Z,0.00
2019-05-29T00:14:33.400Z,0.00
2019-05-29T00:15:33.328Z,0.00
2019-05-29T00:16:33.284Z,0.00
2019-05-29T00:17:33.247Z,0.00
2019-05-29T00:18:33.238Z,0.00
2019-05-29T00:19:33.167Z,0.00
2019-05-29T00:20:33.135Z,0.00
2019-05-29T00:21:33.073Z,0.00
2019-05-29T00:22:33.037Z,0.00
2019-05-29T00:23:33.027Z,0.00
2019-05-29T00:24:32.950Z,0.00
2019-05-29T00:25:32.901Z,0.00
2019-05-29T00:26:32.862Z,0.00
2019-05-29T00:27:32.825Z,0.00
2019-05-29T00:28:32.810Z,0.00
2019-05-29T00:29:32.738Z,0.00
2019-05-29T00:30:32.700Z,0.00
2019-05-29T00:31:32.654Z,0.00
2019-05-29T00:32:32.613Z,0.00
2019-05-29T00:33:32.602Z,0.00
2019-05-29T00:34:32.523Z,0.00
2019-05-29T00:35:32.482Z,0.00
2019-05-29T00:36:32.461Z,0.00
2019-05-29T00:37:32.401Z,0.00
2019-05-29T00:38:32.393Z,0.00
2019-05-29T00:39:32.372Z,0.00
2019-05-29T00:40:32.301Z,0.00
2019-05-29T00:41:32.235Z,0.00
2019-05-29T00:42:32.192Z,0.00
2019-05-29T00:43:32.149Z,0.00
2019-05-29T00:44:34.651Z,0.00
2019-05-29T00:45:32.057Z,0.00
2019-05-29T00:46:32.024Z,0.00
2019-05-29T00:47:31.972Z,0.00
2019-05-29T00:48:31.938Z,0.00
2019-05-29T00:49:31.894Z,0.00
2019-05-29T00:50:32.942Z,0.00
2019-05-29T00:51:31.809Z,0.00
2019-05-29T00:52:31.769Z,0.00
2019-05-29T00:53:31.729Z,0.00
2019-05-29T00:54:31.675Z,0.00
2019-05-29T00:55:31.641Z,0.00
2019-05-29T00:56:31.629Z,0.00
2019-05-29T00:57:31.551Z,0.00
2019-05-29T00:58:31.504Z,0.00
2019-05-29T00:59:31.465Z,0.00
2019-05-29T01:00:31.423Z,0.00
2019-05-29T01:01:31.384Z,0.00
2019-05-29T01:02:31.380Z,0.00
2019-05-29T01:03:31.298Z,0.00
2019-05-29T01:04:31.261Z,0.00
2019-05-29T01:05:31.211Z,0.00
2019-05-29T01:06:31.166Z,0.00
2019-05-29T01:07:31.158Z,0.00
2019-05-29T01:08:31.080Z,0.00
2019-05-29T01:09:31.041Z,0.00
2019-05-29T01:10:31.002Z,0.00
2019-05-29T01:11:30.956Z,0.00
2019-05-29T01:12:30.912Z,0.00
2019-05-29T01:13:30.905Z,0.00
2019-05-29T01:14:30.831Z,0.00
2019-05-29T01:15:30.801Z,0.00
2019-05-29T01:16:30.745Z,0.00
2019-05-29T01:17:30.730Z,0.00
2019-05-29T01:18:30.655Z,0.00
2019-05-29T01:19:30.621Z,0.00
2019-05-29T01:20:30.572Z,0.00
2019-05-29T01:21:30.532Z,0.00
2019-05-29T01:22:30.529Z,0.00
2019-05-29T01:23:30.449Z,0.00
2019-05-29T01:24:30.405Z,0.00
2019-05-29T01:25:30.359Z,0.00
2019-05-29T01:26:30.313Z,0.00
2019-05-29T01:27:30.280Z,0.00
2019-05-29T01:28:30.266Z,0.00
2019-05-29T01:29:30.190Z,0.00
2019-05-29T01:30:30.145Z,0.00
2019-05-29T01:31:30.101Z,0.00
2019-05-29T01:32:30.063Z,0.00
2019-05-29T01:33:30.050Z,0.00
2019-05-29T01:34:29.980Z,0.00
2019-05-29T01:35:29.941Z,0.00
2019-05-29T01:36:29.893Z,0.00
2019-05-29T01:37:29.877Z,0.00
2019-05-29T01:38:29.805Z,0.00
2019-05-29T01:39:29.759Z,0.00
2019-05-29T01:40:29.838Z,0.00
2019-05-29T01:41:29.683Z,0.00
2019-05-29T01:42:29.639Z,0.00
2019-05-29T01:43:29.589Z,0.00
2019-05-29T01:44:29.546Z,0.00
2019-05-29T01:45:29.506Z,0.00
2019-05-29T01:46:29.497Z,0.00
2019-05-29T01:47:29.461Z,0.00
2019-05-29T01:48:29.385Z,0.00
2019-05-29T01:49:29.333Z,0.00
2019-05-29T01:50:29.295Z,0.00
2019-05-29T01:51:29.251Z,0.00
2019-05-29T01:52:29.206Z,0.00
2019-05-29T01:53:29.202Z,0.00
2019-05-29T01:54:29.125Z,0.00
2019-05-29T01:55:29.086Z,0.00
2019-05-29T01:56:29.039Z,0.00
2019-05-29T01:57:29.026Z,0.00
2019-05-29T01:58:28.949Z,0.00
2019-05-29T01:59:28.932Z,0.00
2019-05-29T02:00:28.879Z,0.00
2019-05-29T02:01:28.819Z,0.00
2019-05-29T02:02:28.775Z,0.00
2019-05-29T02:03:28.767Z,0.00
2019-05-29T02:04:28.697Z,0.00
2019-05-29T02:05:28.659Z,0.00
2019-05-29T02:06:28.613Z,0.00
2019-05-29T02:07:28.567Z,0.00
2019-05-29T02:08:28.560Z,0.00
2019-05-29T02:09:28.475Z,0.00
2019-05-29T02:10:28.433Z,0.00
2019-05-29T02:11:28.405Z,0.00
2019-05-29T02:12:28.348Z,0.00
2019-05-29T02:13:28.310Z,0.00
2019-05-29T02:14:28.314Z,0.00
2019-05-29T02:15:32.527Z,0.00
2019-05-29T02:16:28.176Z,0.00
2019-05-29T02:17:28.136Z,0.00
2019-05-29T02:18:28.097Z,0.00
2019-05-29T02:19:28.269Z,0.00
2019-05-29T02:20:28.009Z,0.00
2019-05-29T02:21:28.441Z,0.00
2019-05-29T02:22:27.916Z,0.00
2019-05-29T02:23:28.272Z,0.00
2019-05-29T02:24:27.869Z,0.00
2019-05-29T02:25:27.793Z,0.00
2019-05-29T02:26:27.752Z,0.00
2019-05-29T02:27:27.794Z,0.00
2019-05-29T02:28:27.669Z,0.00
2019-05-29T02:29:27.613Z,0.00
2019-05-29T02:30:30.438Z,0.00
2019-05-29T02:31:28.834Z,0.00
2019-05-29T02:32:27.870Z,0.00
2019-05-29T02:33:28.363Z,0.00
2019-05-29T02:34:29.444Z,0.00
2019-05-29T02:35:29.442Z,0.00
2019-05-29T02:36:28.685Z,0.00
2019-05-29T02:37:28.968Z,0.00
2019-05-29T02:38:27.669Z,0.00
2019-05-29T02:39:27.683Z,4.00
2019-05-29T02:40:29.440Z,4.00
2019-05-29T02:41:28.450Z,4.00
2019-05-29T02:42:27.192Z,0.00
2019-05-29T02:43:27.781Z,0.00
2019-05-29T02:44:27.618Z,4.00
2019-05-29T02:45:50.784Z,4.00
2019-05-29T02:46:28.614Z,4.00
2019-05-29T02:47:28.069Z,4.00
2019-05-29T02:48:27.600Z,4.00
2019-05-29T02:49:28.127Z,8.00
2019-05-29T02:50:28.809Z,4.00
2019-05-29T02:51:28.308Z,8.00
2019-05-29T02:52:28.560Z,8.00
2019-05-29T02:53:28.268Z,12.00
2019-05-29T02:54:27.277Z,12.00
2019-05-29T02:55:26.992Z,16.00
2019-05-29T02:56:26.985Z,16.00
2019-05-29T02:57:26.939Z,20.00
2019-05-29T02:58:27.740Z,20.00
2019-05-29T02:59:27.580Z,24.00
2019-05-29T03:00:27.625Z,28.00
2019-05-29T03:01:27.750Z,28.00
2019-05-29T03:02:27.753Z,36.00
2019-05-29T03:03:27.339Z,40.00
2019-05-29T03:04:26.678Z,48.00
2019-05-29T03:05:26.083Z,52.00
2019-05-29T03:06:26.277Z,60.00
2019-05-29T03:07:26.405Z,68.00
2019-05-29T03:08:27.055Z,72.00
2019-05-29T03:09:26.626Z,80.00
2019-05-29T03:10:26.682Z,92.00
2019-05-29T03:11:27.118Z,100.00
2019-05-29T03:12:27.065Z,116.00
2019-05-29T03:13:27.444Z,128.00
2019-05-29T03:14:27.129Z,140.00
2019-05-29T03:15:26.106Z,152.00
2019-05-29T03:16:26.690Z,172.00
2019-05-29T03:17:25.716Z,188.00
2019-05-29T03:18:25.821Z,208.00
2019-05-29T03:19:25.943Z,224.00
2019-05-29T03:20:25.965Z,244.00
2019-05-29T03:21:26.114Z,264.00
2019-05-29T03:22:26.278Z,288.00
2019-05-29T03:23:26.590Z,312.00
2019-05-29T03:24:26.686Z,340.00
2019-05-29T03:25:26.500Z,368.00
2019-05-29T03:26:26.979Z,396.00
2019-05-29T03:27:25.676Z,424.00
2019-05-29T03:28:25.684Z,460.00
2019-05-29T03:29:25.999Z,492.00
2019-05-29T03:30:27.981Z,528.00
2019-05-29T03:31:29.952Z,560.00
2019-05-29T03:32:28.272Z,600.00
2019-05-29T03:33:27.410Z,640.00
2019-05-29T03:34:27.366Z,680.00
2019-05-29T03:35:27.267Z,720.00
2019-05-29T03:36:27.421Z,764.00
2019-05-29T03:37:26.171Z,804.00
2019-05-29T03:38:25.952Z,852.00
2019-05-29T03:39:26.214Z,900.00
2019-05-29T03:40:26.348Z,944.00
2019-05-29T03:41:26.179Z,992.00
2019-05-29T03:42:26.257Z,1044.00
2019-05-29T03:43:24.443Z,1092.00
2019-05-29T03:44:24.364Z,1144.00
2019-05-29T03:45:24.312Z,1196.00
2019-05-29T03:46:31.567Z,1244.00
2019-05-29T03:47:24.225Z,1300.00
2019-05-29T03:48:25.833Z,1352.00
2019-05-29T03:49:24.184Z,1404.00
2019-05-29T03:50:26.257Z,1460.00
2019-05-29T03:51:24.050Z,1516.00
2019-05-29T03:52:24.007Z,1572.00
2019-05-29T03:53:23.976Z,1628.00
2019-05-29T03:54:23.945Z,1688.00
2019-05-29T03:55:23.916Z,1744.00
2019-05-29T03:56:23.837Z,1800.00
2019-05-29T03:57:23.790Z,1856.00
2019-05-29T03:58:23.752Z,1912.00
2019-05-29T03:59:23.746Z,1968.00
2019-05-29T04:00:23.662Z,2024.00
2019-05-29T04:01:23.633Z,2076.00
2019-05-29T04:02:23.580Z,2132.00
2019-05-29T04:03:23.543Z,2184.00
2019-05-29T04:04:23.491Z,2236.00
2019-05-29T04:05:23.474Z,2296.00
2019-05-29T04:06:23.442Z,2348.00
2019-05-29T04:07:23.362Z,2404.00
2019-05-29T04:08:23.319Z,2456.00
2019-05-29T04:09:23.304Z,2508.00
2019-05-29T04:10:23.226Z,2564.00
2019-05-29T04:11:23.193Z,2612.00
2019-05-29T04:12:23.140Z,2664.00
2019-05-29T04:13:23.100Z,2716.00
2019-05-29T04:14:23.061Z,2768.00
2019-05-29T04:15:23.045Z,2820.00
2019-05-29T04:16:22.970Z,2868.00
2019-05-29T04:17:22.932Z,2920.00
2019-05-29T04:18:22.881Z,2972.00
2019-05-29T04:19:22.875Z,3020.00
2019-05-29T04:20:22.790Z,3064.00
2019-05-29T04:21:22.756Z,3104.00
2019-05-29T04:22:22.733Z,3148.00
2019-05-29T04:23:22.661Z,3196.00
2019-05-29T04:24:22.656Z,3248.00
2019-05-29T04:25:22.589Z,3296.00
2019-05-29T04:26:22.538Z,3348.00
2019-05-29T04:27:22.491Z,3400.00
2019-05-29T04:28:22.449Z,3444.00
2019-05-29T04:29:22.400Z,3500.00
2019-05-29T04:30:22.423Z,3552.00
2019-05-29T04:31:22.315Z,3600.00
2019-05-29T04:32:22.283Z,3648.00
2019-05-29T04:33:22.234Z,3692.00
2019-05-29T04:34:22.232Z,3896.00
2019-05-29T04:35:22.146Z,4744.00
2019-05-29T04:36:22.114Z,6420.00
2019-05-29T04:37:22.051Z,8420.00
2019-05-29T04:38:22.011Z,9308.00
2019-05-29T04:39:21.972Z,9436.00
2019-05-29T04:40:21.959Z,9696.00
2019-05-29T04:41:21.888Z,9920.00
2019-05-29T04:42:21.839Z,10124.00
2019-05-29T04:43:21.793Z,10244.00
2019-05-29T04:44:21.789Z,10336.00
2019-05-29T04:45:21.722Z,10412.00
2019-05-29T04:46:21.675Z,10540.00
2019-05-29T04:47:21.664Z,10652.00
2019-05-29T04:48:21.634Z,10832.00
2019-05-29T04:49:21.545Z,11164.00
2019-05-29T04:50:21.514Z,11380.00
2019-05-29T04:51:21.461Z,11352.00
2019-05-29T04:52:21.426Z,11392.00
2019-05-29T04:53:21.420Z,11512.00
2019-05-29T04:54:21.340Z,11556.00
2019-05-29T04:55:21.336Z,11680.00
2019-05-29T04:56:21.257Z,11824.00
2019-05-29T04:57:21.222Z,12072.00
2019-05-29T04:58:21.179Z,12204.00
2019-05-29T04:59:21.144Z,12332.00
2019-05-29T05:00:21.151Z,12528.00
2019-05-29T05:01:21.095Z,12880.00
2019-05-29T05:02:21.019Z,13244.00
2019-05-29T05:03:20.977Z,13224.00
2019-05-29T05:04:20.944Z,13128.00
2019-05-29T05:05:20.928Z,13112.00
2019-05-29T05:06:20.900Z,13100.00
2019-05-29T05:07:20.831Z,13132.00
2019-05-29T05:08:20.821Z,13220.00
2019-05-29T05:09:20.745Z,13328.00
2019-05-29T05:10:20.706Z,13480.00
2019-05-29T05:11:20.677Z,13924.00
2019-05-29T05:12:20.671Z,18656.00
2019-05-29T05:13:20.594Z,26240.00
2019-05-29T05:14:20.557Z,30208.00
2019-05-29T05:15:20.517Z,28864.00
2019-05-29T05:16:20.483Z,27072.00
2019-05-29T05:17:26.080Z,27392.00
2019-05-29T05:18:20.414Z,27200.00
2019-05-29T05:19:20.374Z,26368.00
2019-05-29T05:20:20.359Z,26304.00
2019-05-29T05:21:20.295Z,26112.00
2019-05-29T05:22:20.259Z,26048.00
2019-05-29T05:23:20.251Z,25696.00
2019-05-29T05:24:20.186Z,25536.00
2019-05-29T05:25:20.151Z,26112.00
2019-05-29T05:26:20.118Z,26528.00
2019-05-29T05:27:20.080Z,26080.00
2019-05-29T05:28:20.070Z,25216.00
2019-05-29T05:29:20.007Z,24768.00
2019-05-29T05:30:19.973Z,23840.00
2019-05-29T05:31:19.937Z,22816.00
2019-05-29T05:32:19.898Z,23232.00
2019-05-29T05:33:19.900Z,25408.00
2019-05-29T05:34:19.822Z,27232.00
2019-05-29T05:35:19.783Z,27776.00
2019-05-29T05:36:19.751Z,28096.00
2019-05-29T05:37:19.721Z,28512.00
2019-05-29T05:38:19.682Z,28704.00
2019-05-29T05:39:19.681Z,28224.00
2019-05-29T05:40:19.609Z,27744.00
2019-05-29T05:41:19.568Z,27968.00
2019-05-29T05:42:19.531Z,27904.00
2019-05-29T05:43:24.029Z,27680.00
2019-05-29T05:44:19.514Z,27872.00
2019-05-29T05:45:19.457Z,28288.00
2019-05-29T05:46:19.392Z,28384.00
2019-05-29T05:47:19.364Z,28480.00
2019-05-29T05:48:19.318Z,28704.00
2019-05-29T05:49:19.295Z,28832.00
2019-05-29T05:50:19.290Z,28992.00
2019-05-29T05:51:19.251Z,29440.00
2019-05-29T05:52:19.193Z,30944.00
2019-05-29T05:53:19.141Z,31648.00
2019-05-29T05:54:19.105Z,31712.00
2019-05-29T05:55:19.077Z,31776.00
2019-05-29T05:56:19.073Z,31968.00
2019-05-29T05:57:19.018Z,32352.00
2019-05-29T05:58:18.976Z,32512.00
2019-05-29T05:59:18.931Z,32384.00
2019-05-29T06:00:18.896Z,32512.00
2019-05-29T06:01:18.901Z,33024.00
2019-05-29T06:02:18.833Z,33120.00
2019-05-29T06:03:18.842Z,33504.00
2019-05-29T06:04:18.763Z,33952.00
2019-05-29T06:05:18.722Z,33792.00
2019-05-29T06:06:18.695Z,33440.00
2019-05-29T06:07:18.653Z,33536.00
2019-05-29T06:08:18.626Z,33536.00
2019-05-29T06:09:18.628Z,34656.00
2019-05-29T06:10:18.558Z,35232.00
2019-05-29T06:11:18.521Z,35936.00
2019-05-29T06:12:18.488Z,36160.00
2019-05-29T06:13:18.456Z,35936.00
2019-05-29T06:14:18.452Z,36160.00
2019-05-29T06:15:18.388Z,35936.00
2019-05-29T06:16:18.355Z,36032.00
2019-05-29T06:17:21.761Z,35712.00
2019-05-29T06:18:27.212Z,35968.00
2019-05-29T06:19:18.252Z,35936.00
2019-05-29T06:20:18.217Z,36224.00
2019-05-29T06:21:18.185Z,36512.00
2019-05-29T06:22:18.150Z,35968.00
2019-05-29T06:23:18.112Z,36000.00
2019-05-29T06:24:18.112Z,36608.00
2019-05-29T06:25:18.212Z,36768.00
2019-05-29T06:26:18.019Z,36896.00
2019-05-29T06:27:18.145Z,37024.00
2019-05-29T06:28:17.947Z,36832.00
2019-05-29T06:29:25.480Z,36896.00
2019-05-29T06:30:17.909Z,36832.00
2019-05-29T06:31:18.316Z,37600.00
2019-05-29T06:32:17.826Z,37984.00
2019-05-29T06:33:27.280Z,37952.00
2019-05-29T06:34:17.763Z,37920.00
2019-05-29T06:35:17.705Z,37568.00
2019-05-29T06:36:17.754Z,37024.00
2019-05-29T06:37:17.644Z,36736.00
2019-05-29T06:38:17.608Z,37152.00
2019-05-29T06:39:26.348Z,37280.00
2019-05-29T06:40:26.375Z,37856.00
2019-05-29T06:41:26.908Z,38080.00
2019-05-29T06:42:26.936Z,38304.00
2019-05-29T06:43:26.467Z,38656.00
2019-05-29T06:44:17.396Z,38272.00
2019-05-29T06:45:17.446Z,38432.00
2019-05-29T06:46:17.365Z,38272.00
2019-05-29T06:47:17.317Z,38592.00
2019-05-29T06:48:17.264Z,38432.00
2019-05-29T06:49:17.380Z,38624.00
2019-05-29T06:50:17.232Z,38784.00
2019-05-29T06:51:17.176Z,39392.00
2019-05-29T06:52:17.134Z,39616.00
2019-05-29T06:53:17.099Z,39712.00
2019-05-29T06:54:17.075Z,39776.00
2019-05-29T06:55:17.055Z,39520.00
2019-05-29T06:56:17.509Z,40224.00
2019-05-29T06:57:16.972Z,41088.00
2019-05-29T06:58:16.935Z,42048.00
2019-05-29T06:59:16.894Z,42336.00
2019-05-29T07:00:33.968Z,41728.00
2019-05-29T07:01:16.829Z,41504.00
2019-05-29T07:02:16.791Z,41120.00
2019-05-29T07:03:16.819Z,42592.00
2019-05-29T07:04:16.725Z,43392.00
2019-05-29T07:05:16.689Z,42400.00
2019-05-29T07:06:16.686Z,42784.00
2019-05-29T07:07:16.623Z,42656.00
2019-05-29T07:08:24.165Z,42432.00
2019-05-29T07:09:16.563Z,42464.00
2019-05-29T07:10:16.532Z,41760.00
2019-05-29T07:11:16.520Z,41664.00
2019-05-29T07:12:16.458Z,41696.00
2019-05-29T07:13:16.440Z,41984.00
2019-05-29T07:14:16.491Z,42208.00
2019-05-29T07:15:16.468Z,41792.00
2019-05-29T07:16:16.327Z,41280.00
2019-05-29T07:17:16.321Z,42048.00
2019-05-29T07:18:16.258Z,42976.00
2019-05-29T07:19:26.471Z,44064.00
2019-05-29T07:20:16.198Z,44992.00
2019-05-29T07:21:16.169Z,44960.00
2019-05-29T07:22:16.154Z,45056.00
2019-05-29T07:23:16.091Z,44960.00
2019-05-29T07:24:16.059Z,44928.00
2019-05-29T07:25:16.034Z,45024.00
2019-05-29T07:26:16.009Z,45664.00
2019-05-29T07:27:15.995Z,46112.00
2019-05-29T07:28:15.968Z,46528.00
2019-05-29T07:29:15.894Z,47680.00
2019-05-29T07:30:15.864Z,48032.00
2019-05-29T07:31:15.832Z,47776.00
2019-05-29T07:32:15.800Z,48000.00
2019-05-29T07:33:15.765Z,48032.00
2019-05-29T07:34:15.765Z,46848.00
2019-05-29T07:35:15.691Z,44640.00
2019-05-29T07:36:15.671Z,43968.00
2019-05-29T07:37:15.638Z,46176.00
2019-05-29T07:38:15.609Z,48768.00
2019-05-29T07:39:15.602Z,50528.00
2019-05-29T07:40:15.534Z,50720.00
2019-05-29T07:41:15.504Z,51168.00
2019-05-29T07:42:15.467Z,50816.00
2019-05-29T07:43:15.435Z,50624.00
2019-05-29T07:44:15.396Z,50368.00
2019-05-29T07:45:15.409Z,49856.00
2019-05-29T07:46:15.338Z,49760.00
2019-05-29T07:47:15.306Z,50080.00
2019-05-29T07:48:15.273Z,50560.00
2019-05-29T07:49:15.290Z,50624.00
2019-05-29T07:50:15.203Z,50656.00
2019-05-29T07:51:15.206Z,50016.00
2019-05-29T07:52:15.154Z,49472.00
2019-05-29T07:53:15.108Z,49696.00
2019-05-29T07:54:15.078Z,50272.00
2019-05-29T07:55:15.040Z,50848.00
2019-05-29T07:56:22.650Z,51104.00
2019-05-29T07:57:14.983Z,51008.00
2019-05-29T07:58:14.947Z,50912.00
2019-05-29T07:59:14.915Z,50112.00
2019-05-29T08:00:14.883Z,50400.00
2019-05-29T08:01:14.885Z,49632.00
2019-05-29T08:02:14.819Z,47552.00
2019-05-29T08:03:14.807Z,45632.00
2019-05-29T08:04:14.751Z,45248.00
2019-05-29T08:05:14.727Z,46304.00
2019-05-29T08:06:14.694Z,47520.00
2019-05-29T08:07:14.690Z,47616.00
2019-05-29T08:08:14.619Z,47456.00
2019-05-29T08:09:14.596Z,47488.00
2019-05-29T08:10:14.608Z,46656.00
2019-05-29T08:11:14.536Z,46208.00
2019-05-29T08:12:14.531Z,46752.00
2019-05-29T08:13:14.488Z,47296.00
2019-05-29T08:14:14.431Z,48032.00
2019-05-29T08:15:14.404Z,47936.00
2019-05-29T08:16:14.364Z,48640.00
2019-05-29T08:17:14.335Z,48896.00
2019-05-29T08:18:14.342Z,49632.00
2019-05-29T08:19:14.277Z,49344.00
2019-05-29T08:20:14.244Z,50080.00
2019-05-29T08:21:14.201Z,50368.00
2019-05-29T08:22:14.170Z,16440.00
2019-05-29T08:23:14.150Z,50464.00
2019-05-29T08:24:14.157Z,50272.00
2019-05-29T08:25:14.082Z,50144.00
2019-05-29T08:26:14.045Z,50688.00
2019-05-29T08:27:14.010Z,50752.00
2019-05-29T08:28:13.983Z,49728.00
2019-05-29T08:29:13.990Z,49280.00
2019-05-29T08:30:13.928Z,48864.00
2019-05-29T08:31:13.898Z,49536.00
2019-05-29T08:32:14.327Z,51200.00
2019-05-29T08:33:13.824Z,52000.00
2019-05-29T08:34:13.824Z,52096.00
2019-05-29T08:35:13.758Z,51360.00
2019-05-29T08:36:13.741Z,51744.00
2019-05-29T08:37:13.702Z,52512.00
2019-05-29T08:38:13.679Z,52704.00
2019-05-29T08:39:13.675Z,45024.00
2019-05-29T08:40:13.642Z,53440.00
2019-05-29T08:41:13.580Z,54016.00
2019-05-29T08:42:23.803Z,55840.00
2019-05-29T08:43:13.515Z,56096.00
2019-05-29T08:44:13.485Z,55968.00
2019-05-29T08:45:13.469Z,55680.00
2019-05-29T08:46:13.439Z,55584.00
2019-05-29T08:47:13.377Z,55840.00
2019-05-29T08:48:13.354Z,55648.00
2019-05-29T08:49:13.325Z,58208.00
2019-05-29T08:50:18.634Z,51776.00
2019-05-29T08:51:13.298Z,1920.00
2019-05-29T08:52:13.247Z,51104.00
2019-05-29T08:53:13.187Z,53184.00
2019-05-29T08:54:23.610Z,56064.00
2019-05-29T08:55:13.924Z,57088.00
2019-05-29T08:56:13.202Z,57856.00
2019-05-29T08:57:13.130Z,58304.00
2019-05-29T08:58:13.047Z,0.00
2019-05-29T08:59:13.009Z,58400.00
2019-05-29T09:00:13.021Z,57952.00
2019-05-29T09:01:12.979Z,58944.00
2019-05-29T09:02:12.943Z,59040.00
2019-05-29T09:03:12.904Z,57696.00
2019-05-29T09:04:12.870Z,57312.00
2019-05-29T09:05:12.817Z,51104.00
2019-05-29T09:06:13.760Z,50048.00
2019-05-29T09:07:12.861Z,45120.00
2019-05-29T09:08:12.779Z,38304.00
2019-05-29T09:09:12.690Z,31008.00
2019-05-29T09:10:12.653Z,33504.00
2019-05-29T09:11:12.616Z,57888.00
2019-05-29T09:12:12.626Z,33760.00
2019-05-29T09:13:12.565Z,21376.00
2019-05-29T09:14:12.549Z,51552.00
2019-05-29T09:15:12.499Z,47648.00
2019-05-29T09:16:12.458Z,58944.00
2019-05-29T09:17:12.422Z,60448.00
2019-05-29T09:18:12.993Z,56832.00
2019-05-29T09:19:12.368Z,56448.00
2019-05-29T09:20:30.599Z,26912.00
2019-05-29T09:21:13.908Z,59040.00
2019-05-29T09:22:13.381Z,59360.00
2019-05-29T09:23:12.762Z,61472.00
2019-05-29T09:24:14.113Z,23392.00
2019-05-29T09:25:13.624Z,34176.00
2019-05-29T09:26:17.683Z,23616.00
2019-05-29T09:27:12.742Z,52896.00
2019-05-29T09:28:14.024Z,10824.00
2019-05-29T09:29:17.809Z,11348.00
2019-05-29T09:30:13.885Z,10556.00
2019-05-29T09:31:11.966Z,10524.00
2019-05-29T09:32:11.933Z,10536.00
2019-05-29T09:33:11.899Z,10768.00
2019-05-29T09:34:11.866Z,47296.00
2019-05-29T09:35:11.867Z,10208.00
2019-05-29T09:36:11.840Z,10160.00
2019-05-29T09:37:11.919Z,10072.00
2019-05-29T09:38:11.733Z,10044.00
2019-05-29T09:39:11.695Z,10044.00
2019-05-29T09:40:11.662Z,9928.00
2019-05-29T09:41:11.640Z,9748.00
2019-05-29T09:42:11.649Z,9788.00
2019-05-29T09:43:11.574Z,9772.00
2019-05-29T09:44:28.137Z,9736.00
2019-05-29T09:45:11.512Z,9760.00
2019-05-29T09:46:11.970Z,14560.00
2019-05-29T09:47:11.440Z,9716.00
2019-05-29T09:48:11.441Z,9684.00
2019-05-29T09:49:11.367Z,9664.00
2019-05-29T09:50:11.337Z,9648.00
2019-05-29T09:51:21.165Z,9628.00
2019-05-29T09:52:11.298Z,9624.00
2019-05-29T09:53:11.268Z,9552.00
2019-05-29T09:54:11.277Z,9568.00
2019-05-29T09:55:11.172Z,9480.00
2019-05-29T09:56:11.134Z,9432.00
2019-05-29T09:57:14.602Z,9344.00
2019-05-29T09:58:11.096Z,9352.00
2019-05-29T09:59:11.037Z,9592.00
2019-05-29T10:00:11.021Z,9500.00
2019-05-29T10:01:22.685Z,9400.00
2019-05-29T10:02:10.941Z,9360.00
2019-05-29T10:03:10.929Z,9320.00
2019-05-29T10:04:10.866Z,9252.00
2019-05-29T10:05:10.838Z,9232.00
2019-05-29T10:06:10.832Z,9280.00
2019-05-29T10:07:10.759Z,9252.00
2019-05-29T10:08:10.747Z,9144.00
2019-05-29T10:09:10.697Z,9308.00
2019-05-29T10:10:10.685Z,9244.00
2019-05-29T10:11:11.190Z,9308.00
2019-05-29T10:12:10.585Z,9376.00
2019-05-29T10:13:19.597Z,9368.00
2019-05-29T10:14:10.518Z,9372.00
2019-05-29T10:15:10.519Z,9400.00
2019-05-29T10:16:10.454Z,9560.00
2019-05-29T10:17:12.511Z,9864.00
2019-05-29T10:18:30.022Z,9748.00
2019-05-29T10:19:10.343Z,9652.00
2019-05-29T10:20:10.343Z,9844.00
2019-05-29T10:21:19.148Z,9852.00
2019-05-29T10:22:10.248Z,9884.00
2019-05-29T10:23:10.208Z,9796.00
2019-05-29T10:24:10.173Z,9928.00
2019-05-29T10:25:10.163Z,9864.00
2019-05-29T10:26:10.164Z,10036.00
2019-05-29T10:27:10.080Z,10112.00
2019-05-29T10:28:10.067Z,10024.00
2019-05-29T10:29:10.252Z,9952.00
2019-05-29T10:30:09.962Z,9904.00
2019-05-29T10:31:09.958Z,9772.00
2019-05-29T10:32:09.928Z,9616.00
2019-05-29T10:33:09.863Z,9520.00
2019-05-29T10:34:09.847Z,9460.00
2019-05-29T10:35:09.824Z,9440.00
2019-05-29T10:36:09.780Z,9428.00
2019-05-29T10:37:09.768Z,10148.00
2019-05-29T10:38:09.691Z,9068.00
2019-05-29T10:39:12.752Z,9252.00
2019-05-29T10:40:09.662Z,9332.00
2019-05-29T10:41:09.590Z,9380.00
2019-05-29T10:42:09.603Z,9392.00
2019-05-29T10:43:09.516Z,9368.00
2019-05-29T10:44:12.656Z,9584.00
2019-05-29T10:45:09.454Z,9464.00
2019-05-29T10:46:09.422Z,9460.00
2019-05-29T10:47:09.420Z,9396.00
2019-05-29T10:48:09.709Z,9384.00
2019-05-29T10:49:09.316Z,9428.00
2019-05-29T10:50:09.309Z,9404.00
2019-05-29T10:51:09.238Z,9600.00
2019-05-29T10:52:15.664Z,9840.00
2019-05-29T10:53:09.207Z,9648.00
2019-05-29T10:54:09.150Z,9732.00
2019-05-29T10:55:09.110Z,9748.00
2019-05-29T10:56:09.074Z,9524.00
2019-05-29T10:57:09.051Z,9700.00
2019-05-29T10:58:09.054Z,9844.00
2019-05-29T10:59:08.974Z,9712.00
2019-05-29T11:00:08.948Z,9940.00
2019-05-29T11:01:08.896Z,9780.00
2019-05-29T11:02:08.865Z,9964.00
2019-05-29T11:03:08.900Z,10060.00
2019-05-29T11:04:08.840Z,10048.00
2019-05-29T11:05:08.771Z,10596.00
2019-05-29T11:06:08.738Z,10536.00
2019-05-29T11:07:08.701Z,10616.00
2019-05-29T11:08:08.672Z,11064.00
2019-05-29T11:09:08.647Z,11124.00
2019-05-29T11:10:08.627Z,11040.00
2019-05-29T11:11:08.597Z,11020.00
2019-05-29T11:12:08.525Z,11344.00
2019-05-29T11:13:08.516Z,12160.00
2019-05-29T11:14:08.466Z,65696.00
2019-05-29T11:15:20.796Z,64480.00
2019-05-29T11:16:08.423Z,64608.00
2019-05-29T11:17:08.372Z,65536.00
2019-05-29T11:18:08.326Z,65280.00
2019-05-29T11:19:08.299Z,64000.00
2019-05-29T11:20:08.265Z,65408.00
2019-05-29T11:21:08.249Z,65248.00
2019-05-29T11:22:25.121Z,66432.00
2019-05-29T11:23:08.164Z,66560.00
2019-05-29T11:24:08.122Z,67008.00
2019-05-29T11:25:21.743Z,67520.00
2019-05-29T11:26:08.097Z,66048.00
2019-05-29T11:27:08.072Z,67808.00
2019-05-29T11:28:07.999Z,66496.00
2019-05-29T11:29:07.957Z,66240.00
2019-05-29T11:30:07.930Z,66912.00
2019-05-29T11:31:07.906Z,67712.00
2019-05-29T11:32:07.902Z,68512.00
2019-05-29T11:33:07.835Z,68512.00
2019-05-29T11:34:07.796Z,66752.00
2019-05-29T11:35:07.776Z,63872.00
2019-05-29T11:36:12.907Z,64096.00
2019-05-29T11:37:07.711Z,65728.00
2019-05-29T11:38:07.712Z,67392.00
2019-05-29T11:39:07.637Z,67136.00
2019-05-29T11:40:07.617Z,68160.00
2019-05-29T11:41:25.072Z,66848.00
2019-05-29T11:42:07.536Z,66592.00
2019-05-29T11:43:07.511Z,67968.00
2019-05-29T11:44:07.510Z,67584.00
2019-05-29T11:45:07.451Z,68864.00
2019-05-29T11:46:07.422Z,67904.00
2019-05-29T11:47:07.385Z,68480.00
2019-05-29T11:48:07.361Z,68768.00
2019-05-29T11:49:07.358Z,67776.00
2019-05-29T11:50:18.752Z,68864.00
2019-05-29T11:51:07.256Z,67712.00
2019-05-29T11:52:23.577Z,67744.00
2019-05-29T11:53:07.190Z,68608.00
2019-05-29T11:54:07.153Z,66528.00
2019-05-29T11:55:08.149Z,65280.00
2019-05-29T11:56:07.101Z,64544.00
2019-05-29T11:57:07.069Z,64736.00
2019-05-29T11:58:07.037Z,65856.00
2019-05-29T11:59:07.005Z,67488.00
2019-05-29T12:00:17.896Z,67072.00
2019-05-29T12:01:06.942Z,67872.00
2019-05-29T12:02:06.907Z,68608.00
2019-05-29T12:03:06.910Z,68064.00
2019-05-29T12:04:23.256Z,68608.00
2019-05-29T12:05:06.848Z,69216.00
2019-05-29T12:06:06.819Z,68576.00
2019-05-29T12:07:06.748Z,68672.00
2019-05-29T12:08:06.730Z,68416.00
2019-05-29T12:09:06.713Z,68960.00
2019-05-29T12:10:07.010Z,69952.00
2019-05-29T12:11:07.280Z,68992.00
2019-05-29T12:12:06.612Z,66560.00